Date,TemperatureHighF,TemperatureAvgF,TemperatureLowF,DewpointHighF,DewpointAvgF,DewpointLowF,HumidityHigh,HumidityAvg,HumidityLow,PressureMaxIn,PressureMinIn,WindSpeedMaxMPH,WindSpeedAvgMPH,GustSpeedMaxMPH,PrecipitationSumIn
2013-1-3,88.6,83.3,80.6,75.7,75.0,74.5,82,76,65,29.80,29.72,2,0,10,0.00
2013-1-4,90.1,81.7,74.5,78.7,75.3,71.7,92,82,66,29.81,29.72,2,1,12,0.20
2013-1-5,91.0,80.3,73.9,77.7,73.5,69.4,91,80,61,29.86,29.74,21,1,28,0.09
2013-1-6,90.7,80.5,73.6,76.4,73.0,70.2,91,79,59,29.85,29.78,6,1,15,0.01
2013-1-7,89.5,79.8,73.6,77.9,73.8,69.8,92,83,63,29.86,29.77,8,1,17,0.82
2013-1-8,90.0,80.2,72.6,77.9,73.3,70.2,92,80,62,29.83,29.70,3,0,12,0.09
2013-1-9,90.7,82.6,74.3,81.1,75.4,70.8,89,79,69,29.75,29.60,3,0,7,0.00
2013-1-10,76.5,74.7,73.0,72.7,71.4,70.2,91,89,88,29.67,29.63,1,0,2,0.00
2013-1-11,89.1,82.1,76.1,80.4,75.6,72.0,88,81,66,29.84,29.71,13,2,17,0.00
2013-1-12,79.8,78.0,77.0,75.7,74.1,73.3,92,88,81,29.85,29.79,1,0,4,0.10
2013-1-13,87.2,82.7,75.7,77.8,74.2,71.4,87,76,69,29.83,29.75,16,5,20,0.00
2013-1-14,91.0,81.3,72.1,77.6,72.7,68.0,90,76,60,29.82,29.72,6,1,12,0.00
2013-1-15,92.2,81.7,70.9,80.9,74.6,67.7,91,79,67,29.81,29.72,12,2,18,0.00
2013-1-16,89.0,81.0,74.6,79.7,74.0,71.3,92,80,67,29.83,29.75,8,1,12,0.06
2013-1-17,88.5,81.1,73.9,79.3,73.8,69.9,89,79,68,29.82,29.73,9,2,15,0.06
2013-1-18,89.8,80.8,72.4,78.7,74.0,69.3,91,80,66,29.82,29.70,8,1,13,0.01
2013-1-19,81.0,76.2,73.5,76.0,73.4,71.4,93,91,82,29.76,29.62,9,1,15,1.99
2013-1-20,92.6,80.0,74.0,81.4,75.1,71.8,93,86,67,29.74,29.61,9,0,12,0.08
2013-1-21,88.6,79.4,75.0,80.7,75.6,72.8,94,89,74,29.69,29.55,6,0,10,0.57
2013-1-22,81.2,76.9,74.1,78.1,74.5,72.0,94,92,89,29.59,29.44,12,1,17,1.26
2013-1-23,84.4,80.6,77.8,79.8,77.3,75.3,93,90,85,29.47,29.28,22,8,31,2.09
2013-1-24,85.0,79.5,75.8,77.7,75.1,72.5,92,87,77,29.53,29.26,28,4,36,0.97
2013-1-25,98.6,84.8,76.9,80.5,76.3,73.1,90,77,50,29.58,29.43,7,2,21,0.01
2013-1-26,96.7,86.2,81.6,82.3,75.8,70.4,85,71,53,29.61,29.45,9,2,14,0.00
2013-1-27,100.2,85.4,80.7,81.5,76.3,75.0,87,75,49,29.60,29.47,20,4,30,0.31
2013-1-28,91.1,80.6,77.0,77.1,74.2,72.6,89,81,63,29.61,29.53,7,2,15,0.52
2013-2-10,88.5,84.9,80.4,80.4,77.3,75.5,86,78,73,29.88,29.79,10,2,14,0.47
2013-2-11,88.9,82.7,76.0,79.9,75.6,72.2,88,79,68,29.88,29.77,14,3,20,0.00
2013-2-12,90.8,82.2,75.6,78.1,74.8,72.6,92,79,62,29.87,29.76,3,1,13,0.06
2013-2-13,92.2,82.2,74.5,77.9,73.8,69.9,87,76,59,29.84,29.72,3,1,13,0.00
2013-2-14,76.9,75.8,74.6,73.7,72.9,71.8,91,91,90,29.82,29.78,2,1,9,0.12
2013-2-24,85.9,80.7,77.4,79.8,75.9,74.1,90,86,78,29.81,29.71,12,2,15,0.04
2013-2-25,91.2,82.0,74.7,81.7,75.8,71.6,91,82,70,29.80,29.67,13,2,17,0.00
2013-2-26,92.6,83.3,74.6,80.5,75.6,71.5,90,78,64,29.76,29.63,5,1,12,0.00
2013-2-27,91.7,81.3,75.9,81.5,76.3,72.9,92,85,65,29.71,29.57,12,2,16,0.81
2013-2-28,76.9,76.5,76.3,74.8,74.3,74.1,93,93,92,29.68,29.62,1,0,5,0.01
2013-3-2,87.9,86.5,85.3,81.4,80.6,79.6,85,83,80,29.64,29.52,7,3,12,0.01
2013-3-3,89.6,81.6,75.9,82.2,77.2,73.4,93,87,77,29.64,29.49,13,2,17,1.04
2013-3-4,76.8,76.3,75.8,74.6,74.1,73.6,94,93,93,29.62,29.54,1,0,3,0.00
2013-3-5,85.5,79.8,75.7,79.1,76.0,73.5,93,88,78,29.74,29.61,2,0,9,0.12
2013-3-6,91.4,82.2,76.5,80.0,76.3,74.0,92,83,67,29.79,29.66,6,1,14,0.03
2013-3-7,90.1,81.5,76.4,78.6,75.1,73.5,91,82,66,29.81,29.72,6,1,14,0.02
2013-3-8,89.5,81.1,75.7,75.7,73.5,72.2,90,78,60,29.84,29.73,5,1,14,0.03
2013-3-9,86.7,79.1,73.5,77.3,73.1,70.2,91,82,70,29.85,29.75,7,1,13,0.04
2013-3-10,86.7,79.4,73.8,76.4,73.1,70.6,91,81,69,29.84,29.75,6,1,15,0.02
2013-3-11,89.3,80.0,73.7,77.1,72.8,70.1,91,79,63,29.83,29.73,5,1,17,0.17
2013-3-12,86.1,77.4,73.1,76.8,72.8,70.1,92,86,72,29.87,29.70,8,1,15,0.30
2013-3-13,81.8,76.0,72.6,76.7,72.5,69.8,92,89,82,29.75,29.65,3,1,18,0.43
2013-3-14,86.6,79.8,74.6,74.7,71.9,67.9,90,77,65,29.80,29.64,6,1,16,0.00
2013-3-15,84.8,73.0,70.4,76.8,68.1,66.5,88,85,76,29.87,29.72,5,0,5,0.00
2013-4-4,88.4,88.4,88.4,73.2,73.2,73.2,61,61,61,29.96,29.96,2,2,9,0.00
2013-4-5,88.5,78.2,72.8,76.8,72.2,68.0,89,82,69,30.01,29.83,12,1,19,0.09
2013-4-6,83.5,76.3,71.5,75.4,71.0,68.4,90,84,70,29.97,29.85,3,1,12,0.07
2013-4-7,88.0,77.7,71.6,75.2,71.4,68.8,91,82,62,29.93,29.83,5,1,14,0.03
2013-4-8,82.3,77.2,74.2,75.5,72.2,69.6,91,85,77,29.95,29.85,6,2,14,0.05
2013-4-9,79.1,74.9,73.0,74.5,72.0,70.5,93,91,84,29.94,29.81,3,1,13,0.47
2013-4-10,73.3,72.7,72.5,71.2,70.6,70.4,94,93,93,29.87,29.78,2,0,6,0.35
2013-4-11,79.3,74.1,71.1,73.7,69.6,67.4,91,86,79,29.79,29.64,5,2,22,0.19
2013-4-12,76.2,74.7,73.2,71.0,70.4,69.8,89,86,84,29.73,29.71,2,2,13,0.00
2013-4-13,87.5,82.1,75.4,76.4,73.3,70.5,85,75,66,29.84,29.75,3,1,12,0.17
2013-4-14,88.2,78.3,70.3,76.1,72.0,67.5,92,81,66,29.88,29.76,7,1,12,0.00
2013-4-15,86.8,78.6,72.2,76.8,72.4,68.4,90,82,67,29.85,29.74,14,2,20,0.00
2013-4-16,85.1,76.5,70.7,75.7,71.2,67.6,90,84,70,29.91,29.79,8,1,13,0.01
2013-4-17,86.6,77.4,69.2,75.9,71.3,66.4,92,82,69,29.93,29.82,12,2,16,0.01
2013-4-18,86.6,78.0,70.6,75.7,71.4,67.3,90,81,64,29.96,29.84,14,2,17,0.00
2013-4-19,87.6,77.5,69.8,76.4,71.3,66.4,90,82,64,29.94,29.83,13,3,18,0.00
2013-4-20,85.2,76.8,67.9,76.5,71.1,65.5,93,83,69,29.90,29.77,3,0,6,0.00
2013-4-21,87.0,78.2,69.9,77.1,72.4,66.5,91,83,70,29.89,29.80,2,0,5,0.00
2013-4-22,87.8,80.3,73.1,78.9,74.6,70.4,91,83,72,29.95,29.83,7,1,10,0.00
2013-4-23,88.1,79.2,71.6,77.7,72.8,68.8,92,82,65,30.00,29.88,13,2,16,0.00
2013-4-24,87.0,77.5,70.6,76.1,71.2,67.5,92,82,65,30.02,29.90,13,2,16,0.00
2013-4-25,72.5,71.7,70.8,69.1,68.5,67.7,90,90,89,29.96,29.93,1,0,6,0.00
2013-4-26,87.1,77.8,70.9,73.7,70.3,67.2,89,79,62,30.03,29.94,3,1,18,0.00
2013-4-27,84.3,76.1,71.2,74.0,69.8,67.2,91,81,68,30.01,29.90,5,1,12,0.07
2013-4-28,85.6,77.0,71.6,72.1,69.1,66.8,88,77,58,30.01,29.90,5,1,13,0.01
2013-4-29,83.6,76.7,71.3,73.2,70.5,67.8,90,82,69,30.01,29.92,5,1,14,0.06
2013-4-30,82.8,77.6,73.5,75.3,72.4,70.2,91,84,75,29.97,29.89,7,2,20,0.16
2013-5-1,86.4,79.8,75.6,75.0,71.9,70.4,85,77,66,29.95,29.85,6,2,18,0.00
2013-5-2,84.1,76.3,72.8,74.7,71.3,69.3,91,85,72,29.98,29.90,5,1,12,0.08
2013-5-3,72.2,71.8,71.3,69.7,69.2,68.7,92,92,91,30.01,29.94,2,0,8,0.17
2013-5-5,83.8,77.7,72.0,72.0,68.8,66.3,83,74,66,29.99,29.92,5,1,10,0.03
2013-5-6,81.5,72.7,67.9,69.7,66.7,64.9,90,82,67,30.01,29.89,3,1,13,0.02
2013-5-7,82.1,73.4,67.8,71.6,67.8,64.4,92,83,70,29.99,29.89,3,1,13,0.27
2013-5-8,78.4,71.7,68.9,73.0,69.0,66.6,93,91,83,30.04,29.93,5,1,17,0.94
2013-5-9,74.8,72.5,70.9,72.3,69.9,68.8,93,92,86,30.08,29.97,3,1,12,0.50
2013-5-10,82.9,74.6,70.4,72.5,69.6,67.6,92,85,70,30.04,29.95,6,1,15,0.02
2013-5-11,71.0,70.6,70.2,68.3,67.8,67.4,92,91,91,30.02,29.98,2,1,10,0.14
2013-5-15,82.4,82.4,82.4,74.1,74.1,74.1,76,76,76,29.87,29.87,7,7,11,0.00
2013-5-21,82.3,79.8,76.7,76.1,73.8,71.8,86,82,77,30.03,29.89,13,5,16,0.01
2013-5-22,86.0,77.3,71.5,76.9,72.6,69.3,93,86,72,29.96,29.84,6,1,9,0.01
2013-5-23,82.8,76.1,70.2,76.8,72.1,67.7,93,87,80,29.90,29.80,6,1,10,0.00
2013-5-24,75.7,72.8,68.3,69.8,65.7,61.3,89,79,66,29.99,29.86,3,0,13,0.00
2013-5-25,78.2,68.8,60.5,61.6,57.3,52.5,85,68,53,30.08,29.96,5,1,15,0.00
2013-5-26,79.6,70.1,61.2,64.5,60.6,56.4,85,73,58,30.08,29.97,5,1,15,0.00
2013-5-27,79.2,72.3,68.1,69.2,66.6,64.6,92,83,69,30.09,30.01,6,1,16,0.20
2013-5-28,80.2,71.6,66.9,69.3,65.6,63.0,91,82,66,30.09,30.00,5,1,15,0.16
2013-5-29,80.8,73.2,68.1,70.7,67.3,65.1,91,82,68,30.07,29.98,6,1,13,0.03
2013-5-30,83.7,74.5,68.8,74.0,69.1,66.1,91,84,69,30.05,29.97,3,1,15,0.11
2013-5-31,80.6,73.6,69.6,71.2,68.4,67.0,92,84,69,30.06,29.99,5,1,16,0.20
2013-6-1,81.2,73.1,68.2,71.1,68.0,65.5,92,84,69,30.04,29.93,5,1,15,0.10
2013-6-2,81.6,73.2,67.4,71.1,66.8,64.4,92,81,63,29.96,29.85,7,1,12,0.01
2013-6-3,81.9,71.6,63.4,70.7,65.1,60.4,91,81,62,30.00,29.85,9,1,13,0.01
2013-6-4,79.7,72.9,67.5,67.1,65.8,63.2,90,79,62,30.07,29.97,6,2,18,0.02
2013-6-5,82.9,74.0,68.3,69.7,66.5,64.0,88,78,57,30.09,30.00,3,1,14,0.01
2013-6-6,81.8,73.1,69.4,71.6,68.1,66.2,91,85,69,30.07,30.00,3,0,14,0.11
2013-6-7,79.8,72.8,69.1,71.2,67.9,66.3,92,85,69,30.07,29.99,6,1,16,0.02
2013-6-8,80.1,73.4,69.4,70.5,67.9,66.0,91,83,70,30.05,29.95,7,2,22,0.03
2013-6-9,80.3,73.5,68.9,71.7,68.4,65.8,91,85,73,30.01,29.90,3,1,15,0.01
2013-6-10,81.8,74.2,69.1,72.1,68.9,66.0,91,84,71,29.97,29.88,3,1,14,0.01
2013-6-11,81.3,73.8,69.6,71.7,68.8,66.5,92,85,70,29.96,29.87,3,0,9,0.02
2013-6-12,83.5,74.2,68.0,74.0,69.1,65.3,91,84,70,29.93,29.83,9,1,13,0.00
2013-6-13,83.8,76.4,70.8,73.9,70.2,67.4,90,82,67,29.90,29.79,12,2,16,0.00
2013-7-2,76.7,65.1,53.6,53.1,51.8,50.4,89,66,44,30.06,30.03,1,0,5,0.00
2013-7-4,69.8,69.8,69.8,65.4,65.4,65.4,86,86,86,29.98,29.98,0,0,4,0.00
2013-7-6,81.8,77.3,73.4,72.4,70.0,59.0,85,79,71,30.06,29.91,12,1,16,0.00
2013-7-7,83.5,76.8,72.1,72.7,69.6,66.8,90,79,66,30.11,30.01,5,1,16,0.02
2013-7-8,80.3,75.5,71.1,69.4,67.7,66.3,87,77,67,30.15,30.06,8,2,22,0.02
2013-7-9,74.9,70.6,68.5,68.2,65.6,63.1,90,84,77,30.12,30.02,5,2,17,0.20
2013-7-10,78.7,71.3,67.0,69.6,66.3,63.1,91,84,72,30.09,30.00,6,2,16,0.09
2013-7-11,79.8,72.6,68.1,70.1,67.3,65.1,91,84,69,30.13,30.04,8,2,21,0.16
2013-7-12,71.0,69.5,68.0,65.9,65.2,64.4,89,86,84,30.11,30.06,3,1,17,0.01
2013-7-17,72.0,72.0,72.0,65.8,65.8,65.8,81,81,81,29.99,29.99,0,0,4,0.00
2013-7-20,79.3,79.3,79.3,70.7,70.7,70.7,75,75,75,29.87,29.87,2,2,6,0.00
2013-7-22,70.8,70.8,70.8,66.4,66.4,66.4,86,86,86,30.05,30.05,0,0,2,0.00
2013-7-23,79.4,73.7,70.9,65.5,64.3,63.3,77,73,62,30.08,30.01,2,0,12,0.00
2013-7-24,74.0,69.7,65.6,62.3,53.2,45.2,76,56,44,30.12,30.02,6,1,16,0.00
2013-7-25,76.7,68.7,63.8,60.6,56.1,47.9,75,64,54,30.13,30.05,6,2,20,0.00
2013-7-26,77.5,71.5,67.5,66.8,63.9,61.6,88,77,68,30.12,30.04,5,1,15,0.00
2013-7-27,78.1,69.5,65.1,67.3,64.0,61.7,91,83,67,30.13,30.03,6,1,16,0.14
2013-7-28,80.6,72.9,66.7,68.1,64.9,62.7,88,77,64,30.11,30.01,5,1,16,0.01
2013-7-29,81.2,72.2,66.0,66.6,64.0,61.7,89,76,57,30.07,29.94,5,1,14,0.00
2013-7-30,81.1,71.1,65.3,67.1,63.2,60.7,88,77,60,30.00,29.85,13,1,16,0.00
2013-7-31,80.2,70.1,60.6,65.8,61.3,57.0,90,75,54,29.99,29.90,5,1,13,0.00
2013-8-1,80.8,68.9,59.4,64.6,59.8,55.2,86,74,54,30.03,29.93,5,1,16,0.00
2013-8-2,79.9,69.1,60.3,68.9,62.1,55.4,86,79,61,30.04,29.94,14,3,18,0.00
2013-8-3,79.9,70.1,64.1,69.1,63.8,60.2,88,81,68,30.07,29.98,5,1,15,0.00
2013-8-4,82.6,70.6,61.1,66.1,60.9,57.2,89,73,45,30.09,29.97,6,1,12,0.00
2013-8-5,80.7,69.9,60.6,63.9,58.2,54.0,83,68,41,30.11,29.99,9,1,15,0.00
2013-8-6,79.8,69.9,60.7,62.8,59.0,56.5,86,70,46,30.10,29.98,6,1,12,0.00
2013-8-7,79.4,67.6,58.3,62.9,56.9,52.8,83,70,50,30.07,29.93,14,2,17,0.00
2013-8-8,81.6,67.8,56.2,66.3,59.0,52.1,87,74,53,30.03,29.89,5,0,10,0.00
2013-8-9,81.1,66.8,53.3,67.9,57.7,50.4,91,74,49,30.01,29.91,13,1,17,0.01
2013-8-10,78.9,68.5,59.6,65.8,58.6,52.5,79,71,60,30.05,29.95,14,2,17,0.00
2013-8-11,82.2,70.9,63.5,68.4,61.4,56.3,80,72,59,30.06,29.95,10,2,13,0.00
2013-8-12,81.5,71.6,63.5,68.1,63.4,59.6,87,76,55,30.03,29.92,12,3,14,0.00
2013-8-13,83.1,71.9,63.3,70.5,64.5,59.0,87,78,63,30.04,29.92,13,2,17,0.00
2013-8-14,82.2,71.1,61.3,69.2,63.4,57.7,88,77,61,30.05,29.93,8,2,12,0.00
2013-8-15,83.4,71.6,61.9,70.7,64.2,57.8,89,78,61,30.04,29.93,6,1,10,0.00
2013-8-16,65.3,64.0,63.3,61.7,60.6,60.0,90,88,87,30.03,29.99,1,0,6,0.00
2013-9-8,68.6,68.6,68.6,64.6,64.6,64.6,87,87,87,30.08,30.08,0,0,4,0.00
2013-9-13,81.6,81.6,81.6,72.1,72.1,72.1,73,73,73,30.03,30.03,1,1,3,0.00
2013-9-14,85.4,79.1,65.8,74.5,70.9,62.8,90,76,67,29.99,29.89,12,4,15,0.01
2013-9-15,84.8,74.7,66.0,74.6,68.1,62.7,90,80,65,30.01,29.88,14,4,18,0.00
2013-9-16,85.2,74.5,65.7,72.9,67.0,61.4,88,78,62,29.97,29.81,8,1,12,0.00
2013-9-17,82.1,73.9,65.9,74.0,68.4,62.9,91,83,71,29.92,29.76,7,1,12,0.00
2013-9-18,86.0,78.7,73.2,76.4,72.8,69.8,90,82,72,29.91,29.79,5,1,8,0.00
2013-9-19,85.4,77.2,68.0,76.1,71.0,64.9,91,82,70,29.93,29.82,5,0,6,0.00
2013-9-20,84.5,74.7,64.1,74.9,68.5,61.4,92,82,63,29.95,29.81,5,0,6,0.00
2013-9-21,84.1,74.5,65.5,73.3,68.2,62.0,89,81,69,29.92,29.79,3,0,5,0.00
2013-9-22,85.8,75.7,65.6,74.9,69.0,62.3,90,80,66,29.92,29.80,0,0,0,0.00
2013-9-23,87.1,76.4,66.7,75.0,68.9,62.8,88,78,64,29.99,29.89,0,0,0,0.00
2013-9-24,86.8,76.6,67.8,73.2,67.9,63.8,88,76,60,30.02,29.91,0,0,0,0.00
2013-9-25,85.3,74.4,63.6,70.5,65.9,60.5,91,76,60,30.03,29.91,0,0,0,0.00
2013-9-26,86.3,74.4,63.1,71.1,65.4,60.1,91,75,58,30.05,29.92,0,0,0,0.00
2013-9-27,86.5,75.0,65.2,73.2,66.8,61.3,89,77,61,30.01,29.90,0,0,0,0.00
2013-9-28,88.1,77.2,65.9,74.6,69.2,62.3,90,77,61,29.99,29.87,0,0,0,0.00
2013-9-29,88.3,76.1,69.2,74.8,68.8,65.2,89,79,61,29.98,29.90,0,0,0,0.00
2013-10-1,83.4,79.3,75.1,72.3,70.5,68.5,80,75,65,30.05,29.92,16,3,20,0.00
2013-10-3,78.2,78.2,78.2,71.2,71.2,71.2,79,79,79,29.81,29.81,3,3,10,0.00
2013-10-4,70.8,70.8,70.8,66.4,66.4,66.4,86,86,86,29.87,29.87,0,0,3,0.00
2013-10-5,87.0,77.8,73.2,74.3,69.8,64.7,82,77,66,30.04,29.87,9,1,13,0.00
2013-10-6,81.7,75.7,70.6,70.9,68.3,64.6,88,78,67,29.98,29.84,18,4,21,0.00
2013-10-7,81.8,75.0,67.4,71.7,67.0,62.3,84,77,64,29.93,29.82,12,3,16,0.00
2013-10-8,86.7,74.6,62.4,74.5,67.5,59.4,91,79,65,29.89,29.82,5,0,9,0.00
2013-10-9,86.1,74.7,61.9,75.7,67.5,58.6,90,79,65,30.01,29.87,17,3,21,0.01
2013-10-10,83.4,78.3,74.3,71.2,68.5,65.9,82,72,56,30.07,29.93,15,4,20,0.00
2013-10-11,86.4,76.5,68.6,69.5,65.9,63.5,85,70,54,30.01,29.87,15,5,20,0.00
2013-10-12,82.6,75.4,66.8,68.4,65.1,61.6,84,71,57,29.97,29.88,15,3,20,0.00
2013-10-13,90.2,77.9,68.6,76.7,70.0,63.0,85,77,61,29.97,29.85,12,4,15,0.00
2013-10-14,87.2,81.4,77.6,77.9,75.1,72.4,86,81,73,29.97,29.83,5,1,10,0.00
2013-10-15,88.2,80.1,75.0,79.0,73.7,70.1,87,81,73,30.02,29.89,15,3,20,0.00
2013-10-16,88.4,80.5,75.1,77.1,72.5,69.3,86,77,67,30.06,29.93,16,3,20,0.25
2013-10-17,81.9,76.3,71.2,74.0,70.7,68.1,90,83,74,30.06,29.91,12,1,14,0.01
2013-10-18,85.0,78.3,73.7,76.5,72.1,69.7,88,81,75,30.02,29.91,16,3,22,0.00
2013-10-19,86.9,79.4,71.5,72.0,69.8,67.1,87,73,58,30.03,29.94,6,1,14,0.00
2013-10-20,85.3,78.6,71.7,72.1,69.1,66.5,87,73,59,30.02,29.90,5,1,15,0.00
2013-10-21,86.1,77.9,71.6,72.2,68.8,65.3,87,74,52,29.96,29.87,6,1,15,0.01
2013-10-22,82.5,74.5,70.4,73.5,69.6,65.9,91,85,73,29.95,29.86,14,1,18,0.14
2013-10-23,83.6,77.0,71.6,75.1,71.5,68.7,92,83,72,29.97,29.84,15,5,20,0.22
2013-10-24,86.1,77.5,70.1,74.6,70.2,66.3,89,79,67,29.95,29.84,14,2,17,0.00
2013-10-25,86.3,76.6,68.0,72.9,67.7,64.3,89,75,58,30.01,29.88,14,3,17,0.00
2013-10-26,85.4,78.7,70.6,72.4,68.5,65.2,85,72,55,30.05,29.94,13,2,18,0.00
2013-10-27,84.9,78.1,70.7,72.6,69.2,66.3,86,75,60,30.03,29.95,13,2,17,0.00
2013-10-28,85.1,77.9,70.0,71.3,67.5,64.6,84,71,56,30.06,29.95,10,2,14,0.00
2013-10-29,82.9,77.4,69.6,71.7,67.5,63.8,82,72,61,30.03,29.90,15,5,20,0.00
2013-10-30,86.0,77.1,68.0,73.1,68.1,63.3,86,75,62,29.97,29.85,3,1,8,0.00
2013-10-31,87.9,78.7,69.1,75.5,70.3,64.8,88,76,65,29.96,29.85,5,1,9,0.00
2013-11-1,87.3,80.1,72.4,78.1,73.1,67.5,85,80,68,29.96,29.88,15,5,20,0.02
2013-11-2,83.7,77.2,71.1,74.2,71.3,67.2,91,82,70,30.05,29.90,17,2,23,1.20
2013-11-3,86.2,78.1,71.9,72.4,69.0,66.3,90,75,53,30.02,29.90,8,1,14,0.05
2013-11-4,84.7,76.1,67.9,70.6,66.9,63.9,87,74,55,29.99,29.89,14,3,18,0.00
2013-11-5,86.8,77.0,66.7,70.5,67.0,61.7,85,72,53,30.00,29.91,6,1,16,0.00
2013-11-6,85.2,78.5,72.7,73.4,69.2,65.9,80,73,61,30.01,29.89,12,2,16,0.00
2013-11-7,85.5,78.9,74.0,72.7,69.1,66.0,79,72,59,29.97,29.85,10,2,15,0.00
2013-11-8,85.1,77.8,71.2,72.8,68.7,65.8,84,74,61,29.95,29.84,12,2,17,0.00
2013-11-9,87.0,77.1,69.2,72.0,67.5,63.6,85,73,46,29.92,29.81,13,2,16,0.00
2013-11-10,86.9,76.5,68.1,73.3,67.5,62.4,83,74,60,29.89,29.75,17,4,20,0.00
2013-11-11,87.6,78.4,69.6,75.6,70.8,64.6,85,78,63,29.86,29.77,14,4,18,0.00
2013-11-12,83.7,79.1,74.9,77.6,74.2,71.5,90,85,80,29.89,29.79,15,3,18,0.35
2013-11-13,85.1,80.1,74.8,75.9,73.5,71.3,90,81,72,29.92,29.80,10,2,14,0.02
2013-11-14,86.1,80.4,74.9,78.0,73.8,70.4,86,81,69,29.91,29.80,10,3,14,0.00
2013-11-15,77.6,76.3,74.8,73.1,72.3,71.1,89,88,86,29.87,29.82,1,0,4,0.00
2013-11-17,88.3,82.1,78.7,78.4,74.9,72.8,84,79,70,29.83,29.75,7,2,13,0.00
2013-11-18,73.7,73.7,73.7,69.6,69.6,69.6,87,87,87,29.80,29.80,0,0,2,0.00
2013-11-21,83.2,83.2,83.2,76.0,76.0,76.0,79,79,79,29.81,29.81,1,1,4,0.00
2013-11-23,85.0,80.4,76.4,78.5,75.9,73.6,91,86,80,29.75,29.66,12,4,16,0.20
2013-11-24,87.5,79.1,74.8,80.0,74.8,72.0,91,87,76,29.78,29.66,6,1,10,0.46
2013-11-25,83.3,77.9,74.4,77.3,73.8,71.4,91,87,78,29.73,29.62,18,2,25,0.46
2013-11-26,89.2,80.9,73.4,80.3,75.5,70.9,93,84,73,29.74,29.63,7,1,10,0.06
2013-11-27,90.6,82.9,76.7,80.3,76.0,72.8,89,80,69,29.84,29.67,7,1,12,0.00
2013-11-28,84.7,79.5,76.5,77.4,74.9,72.7,90,86,77,29.90,29.78,10,0,15,0.35
2013-11-29,86.5,80.3,75.7,79.2,75.1,72.6,90,84,76,29.88,29.75,10,2,14,0.00
2013-11-30,89.9,82.0,76.8,81.0,75.9,72.6,89,82,71,29.87,29.75,3,0,6,0.01
2013-12-1,91.5,83.2,77.0,79.3,75.9,73.7,91,79,57,29.95,29.82,8,1,12,0.04
2013-12-2,85.5,78.8,75.1,76.4,72.4,67.8,90,81,70,29.97,29.88,3,1,16,0.22
2013-12-3,85.3,79.4,74.5,73.3,70.6,68.6,82,75,62,29.88,29.82,3,1,12,0.00
2013-12-4,86.9,78.1,70.5,74.1,69.6,65.8,86,76,60,29.87,29.76,10,2,16,0.00
2013-12-5,72.7,70.7,69.2,67.2,66.2,65.1,88,86,83,29.81,29.74,1,0,6,0.00
2013-12-15,89.3,83.9,80.2,77.6,74.2,68.9,79,73,64,29.88,29.79,7,2,13,0.01
2013-12-16,87.2,77.7,72.5,77.2,72.5,69.3,90,84,70,29.89,29.80,5,1,13,0.58
2013-12-17,88.8,81.0,73.4,74.8,71.2,68.9,91,73,58,29.91,29.81,7,2,20,0.01
2013-12-18,88.6,82.7,78.1,75.0,71.6,69.4,83,70,56,29.93,29.84,6,2,17,0.00
2013-12-19,87.7,80.1,73.3,75.7,72.3,69.5,89,78,64,29.93,29.83,6,1,17,0.17
2013-12-20,87.0,79.4,72.8,75.4,72.0,69.3,90,79,63,29.94,29.85,6,1,15,0.28
2013-12-21,86.2,79.2,72.1,74.4,71.1,67.8,87,77,62,29.92,29.83,7,1,13,0.01
2013-12-22,87.4,79.7,71.7,73.2,70.4,67.6,87,74,56,29.91,29.82,6,1,12,0.00
2013-12-23,82.6,76.7,72.4,74.9,71.4,69.0,90,84,72,29.92,29.83,13,1,17,0.06
2013-12-24,85.1,77.7,69.4,74.6,70.0,65.7,89,78,63,29.92,29.82,16,4,20,0.00
2013-12-25,85.5,77.8,70.9,76.4,71.9,66.5,91,82,74,29.91,29.81,16,2,20,0.25
2013-12-26,86.5,80.1,74.4,76.4,72.4,69.2,89,78,67,29.87,29.76,16,4,21,0.00
2013-12-27,89.4,79.8,69.5,75.7,70.6,65.5,88,75,57,29.84,29.71,5,0,10,0.00
2013-12-28,89.4,79.8,68.3,77.6,71.4,64.9,89,76,64,29.84,29.74,6,1,10,0.00
2013-12-29,89.3,81.7,71.8,78.1,73.2,68.1,89,76,65,29.86,29.78,3,0,7,0.00
2013-12-30,89.3,80.1,69.3,78.7,72.9,66.1,91,80,67,29.87,29.77,3,0,7,0.00
2013-12-31,90.3,81.3,70.5,79.3,73.9,67.4,90,79,67,29.85,29.74,5,1,8,0.01
2014-1-1,88.0,81.4,73.3,79.9,74.6,68.9,87,80,74,29.83,29.73,6,1,9,0.00
2014-1-2,90.9,83.6,76.7,80.1,75.6,72.2,86,77,68,29.88,29.76,5,0,7,0.00